Time;durP1;ratioP1;P1;durP2;ratioP2;P2;SDS_P1;SDS_P2;PMS_P1;PMS_P2;Temp;Humidity;BMP_temperature;BMP_pressure;BME280_temperature;BME280_humidity;BME280_pressure;Samples;Min_cycle;Max_cycle;Signal;HPM_P1;HPM_P2
2022/07/05 00:02:37;;;;;;;0.50;0.20;;;17.90;91.20;;;;;;10186549;29;20055;-91
2022/07/05 00:07:40;;;;;;;2.35;0.30;;;17.80;91.70;;;;;;10186031;29;20055;-91
2022/07/05 00:12:42;;;;;;;0.85;0.20;;;17.80;92.40;;;;;;10165761;29;20529;-91
2022/07/05 00:17:48;;;;;;;0.63;0.25;;;17.70;92.30;;;;;;10185954;29;20055;-91
2022/07/05 00:22:50;;;;;;;1.00;0.30;;;17.60;92.70;;;;;;10197577;29;20047;-90
2022/07/05 00:27:56;;;;;;;1.38;0.20;;;17.60;93.40;;;;;;10185071;29;20609;-90
2022/07/05 00:32:58;;;;;;;0.43;0.20;;;17.40;93.70;;;;;;10201697;29;20059;-90
2022/07/05 00:38:00;;;;;;;1.42;0.30;;;17.40;94.00;;;;;;10201542;29;20055;-90
2022/07/05 00:43:03;;;;;;;0.40;0.28;;;17.20;94.30;;;;;;10198549;29;20498;-90
2022/07/05 00:48:05;;;;;;;1.70;0.30;;;17.20;94.50;;;;;;10181076;29;20043;-90
2022/07/05 00:53:11;;;;;;;1.40;0.20;;;17.20;94.70;;;;;;10180746;29;20189;-90
2022/07/05 00:58:14;;;;;;;3.03;0.30;;;17.00;95.10;;;;;;10198633;29;20055;-90
2022/07/05 01:03:17;;;;;;;2.85;0.20;;;16.90;95.60;;;;;;10170870;29;20128;-91
2022/07/05 01:08:23;;;;;;;0.60;0.30;;;16.90;95.90;;;;;;10166473;29;20056;-91
2022/07/05 01:13:26;;;;;;;0.20;0.20;;;16.80;96.40;;;;;;10169059;29;20055;-90
2022/07/05 01:18:28;;;;;;;2.55;0.30;;;16.70;96.70;;;;;;10180573;29;20036;-90
2022/07/05 01:23:31;;;;;;;0.63;0.40;;;16.70;96.90;;;;;;10179068;29;20147;-90
2022/07/05 01:28:33;;;;;;;2.55;0.30;;;16.70;97.50;;;;;;10181839;29;20059;-91
2022/07/05 01:33:35;;;;;;;2.78;0.40;;;16.70;98.10;;;;;;10164506;29;20078;-91
2022/07/05 01:38:37;;;;;;;3.78;0.30;;;16.60;98.20;;;;;;10179415;29;20048;-91
2022/07/05 01:43:40;;;;;;;0.20;0.20;;;16.40;98.80;;;;;;10179183;29;20082;-91
2022/07/05 01:48:45;;;;;;;1.63;0.20;;;16.40;99.40;;;;;;10181243;29;20054;-91
2022/07/05 01:53:51;;;;;;;1.02;0.40;;;16.40;99.80;;;;;;10181213;29;20096;-91
2022/07/05 01:58:53;;;;;;;0.25;0.25;;;16.40;99.90;;;;;;10172850;29;20104;-91
2022/07/05 02:03:58;;;;;;;0.50;0.30;;;16.30;99.90;;;;;;10198026;29;20059;-90
2022/07/05 02:09:05;;;;;;;1.10;0.35;;;16.30;99.80;;;;;;10166492;29;20607;-90
2022/07/05 02:14:08;;;;;;;1.00;0.30;;;16.20;99.90;;;;;;10169087;29;20388;-90
2022/07/05 02:19:10;;;;;;;1.23;0.30;;;16.20;99.90;;;;;;10179444;29;20557;-90
2022/07/05 02:24:13;;;;;;;2.95;0.75;;;16.10;99.90;;;;;;10195568;29;20419;-90
2022/07/05 02:29:15;;;;;;;4.18;0.40;;;16.10;99.90;;;;;;10179738;29;20063;-89
2022/07/05 02:34:18;;;;;;;0.77;0.40;;;16.10;99.90;;;;;;10176010;29;20172;-90
2022/07/05 02:39:20;;;;;;;0.63;0.30;;;15.80;99.90;;;;;;10182039;29;20048;-91
2022/07/05 02:44:22;;;;;;;0.80;0.30;;;15.70;99.90;;;;;;10185484;29;20135;-90
2022/07/05 02:49:25;;;;;;;4.13;0.40;;;15.60;99.90;;;;;;10175293;29;20079;-91
2022/07/05 02:54:27;;;;;;;3.63;0.40;;;15.60;99.90;;;;;;10150218;29;20151;-91
2022/07/05 02:59:30;;;;;;;1.98;0.50;;;15.60;99.90;;;;;;10175395;29;20066;-91
2022/07/05 03:04:35;;;;;;;1.63;0.20;;;15.40;99.90;;;;;;10174966;29;20542;-90
2022/07/05 03:09:42;;;;;;;1.15;0.38;;;15.40;99.90;;;;;;10170687;29;20844;-91
2022/07/05 03:14:46;;;;;;;1.63;0.30;;;15.40;99.90;;;;;;10171283;29;20084;-91
2022/07/05 03:19:49;;;;;;;2.03;0.70;;;15.30;99.90;;;;;;10172079;29;20084;-90
2022/07/05 03:24:51;;;;;;;1.17;0.30;;;15.30;99.90;;;;;;10188389;29;20040;-89
2022/07/05 03:29:56;;;;;;;0.73;0.40;;;15.30;99.90;;;;;;10187009;29;20059;-89
2022/07/05 03:35:01;;;;;;;;;;;15.30;99.90;;;;;;10187076;29;20052;-89
2022/07/05 03:40:04;;;;;;;0.43;0.40;;;15.30;99.90;;;;;;10176291;29;19927;-89
2022/07/05 03:45:07;;;;;;;0.93;0.30;;;15.30;99.90;;;;;;10199524;29;20391;-88
2022/07/05 03:50:10;;;;;;;3.35;0.40;;;15.30;99.90;;;;;;10184354;29;20054;-89
2022/07/05 03:55:12;;;;;;;0.50;0.32;;;15.20;99.90;;;;;;10180788;29;20051;-88
2022/07/05 04:00:14;;;;;;;1.27;0.55;;;15.30;99.90;;;;;;10182702;29;20391;-89
2022/07/05 04:05:16;;;;;;;0.77;0.30;;;15.30;99.90;;;;;;10167509;29;20072;-88
2022/07/05 04:10:20;;;;;;;2.60;0.40;;;15.30;99.90;;;;;;10184822;29;20048;-88
2022/07/05 04:15:22;;;;;;;1.45;0.38;;;15.40;99.90;;;;;;10197535;29;20062;-88
2022/07/05 04:20:27;;;;;;;0.57;0.30;;;15.40;99.90;;;;;;10180541;29;20070;-88
2022/07/05 04:25:30;;;;;;;1.70;0.30;;;15.50;99.90;;;;;;10160845;29;20063;-88
2022/07/05 04:30:33;;;;;;;0.20;0.20;;;15.40;99.90;;;;;;10168143;29;20048;-88
2022/07/05 04:35:36;;;;;;;1.95;0.40;;;15.50;99.90;;;;;;10149631;29;20059;-89
2022/07/05 04:40:40;;;;;;;4.95;0.40;;;15.60;99.90;;;;;;10194615;29;20072;-89
2022/07/05 04:45:43;;;;;;;2.40;0.30;;;15.60;99.90;;;;;;10180937;29;20114;-88
2022/07/05 04:50:50;;;;;;;1.90;0.30;;;15.60;99.90;;;;;;10177097;29;20154;-88
2022/07/05 04:55:52;;;;;;;1.80;0.35;;;15.70;99.90;;;;;;10177627;29;20107;-88
2022/07/05 05:00:54;;;;;;;1.75;0.50;;;15.70;99.90;;;;;;10173872;29;20039;-88
2022/07/05 05:05:56;;;;;;;3.03;0.30;;;15.80;99.90;;;;;;10162863;29;20062;-87
2022/07/05 05:10:59;;;;;;;3.42;0.30;;;15.90;99.90;;;;;;10172274;29;20131;-91
2022/07/05 05:16:04;;;;;;;0.70;0.30;;;16.00;99.90;;;;;;10176853;29;20058;-90
2022/07/05 05:21:06;;;;;;;1.75;0.40;;;16.20;99.90;;;;;;10185685;29;20134;-89
2022/07/05 05:26:09;;;;;;;1.00;0.38;;;16.40;99.90;;;;;;10162409;29;20055;-89
2022/07/05 05:31:14;;;;;;;1.15;0.55;;;16.50;99.90;;;;;;10189756;28;20071;-89
2022/07/05 05:36:16;;;;;;;2.03;0.43;;;16.70;99.90;;;;;;10164134;29;20513;-89
2022/07/05 05:41:18;;;;;;;2.10;0.30;;;16.90;99.90;;;;;;10196192;29;20079;-89
2022/07/05 05:46:20;;;;;;;1.50;0.30;;;17.10;99.90;;;;;;10194283;29;20036;-89
2022/07/05 05:51:23;;;;;;;1.42;0.40;;;17.30;99.90;;;;;;10176673;29;20135;-89
2022/07/05 05:56:26;;;;;;;4.95;0.32;;;17.50;99.90;;;;;;10190552;29;20079;-89
2022/07/05 06:01:28;;;;;;;5.88;0.82;;;17.70;99.90;;;;;;10175309;29;20139;-90
2022/07/05 06:06:30;;;;;;;0.50;0.35;;;18.00;99.90;;;;;;10192270;29;20059;-89
2022/07/05 06:11:32;;;;;;;2.08;0.32;;;18.30;99.90;;;;;;10188712;29;20740;-88
2022/07/05 06:16:34;;;;;;;0.70;0.20;;;18.60;99.90;;;;;;10193365;29;20062;-88
2022/07/05 06:21:36;;;;;;;2.97;0.82;;;18.80;99.90;;;;;;10183151;29;20059;-88
2022/07/05 06:26:38;;;;;;;3.25;0.30;;;19.10;99.90;;;;;;10185363;29;20060;-88
2022/07/05 06:31:40;;;;;;;2.70;0.40;;;19.30;99.90;;;;;;10181907;29;20162;-88
2022/07/05 06:36:42;;;;;;;3.95;0.30;;;19.50;99.90;;;;;;10182378;29;20271;-88
2022/07/05 06:41:44;;;;;;;1.38;0.30;;;19.70;99.90;;;;;;10183212;29;20056;-88
2022/07/05 06:46:47;;;;;;;2.10;0.40;;;19.80;99.90;;;;;;10181106;29;20096;-88
2022/07/05 06:51:49;;;;;;;3.65;0.60;;;20.00;99.90;;;;;;10180579;29;20051;-88
2022/07/05 06:56:55;;;;;;;0.70;0.32;;;20.20;99.90;;;;;;10159503;29;20166;-88
2022/07/05 07:02:19;;;;;;;2.28;0.38;;;20.40;99.90;;;;;;10181383;29;20761;-88
2022/07/05 07:12:43;;;;;;;0.80;0.35;;;20.80;99.00;;;;;;10197224;29;20055;-88
2022/07/05 07:17:45;;;;;;;2.42;0.40;;;21.00;98.00;;;;;;10179367;29;20056;-88
2022/07/05 07:22:47;;;;;;;3.30;0.32;;;21.20;97.40;;;;;;10165132;29;20068;-88
2022/07/05 07:27:54;;;;;;;2.72;0.40;;;21.30;97.10;;;;;;10177169;29;20067;-88
2022/07/05 07:32:56;;;;;;;1.52;0.50;;;21.50;96.30;;;;;;10187901;29;20135;-89
2022/07/05 07:37:58;;;;;;;0.80;0.32;;;21.60;96.40;;;;;;10158582;29;20514;-89
2022/07/05 07:43:00;;;;;;;0.40;0.32;;;21.80;95.60;;;;;;10189918;29;20456;-88
2022/07/05 07:48:02;;;;;;;0.95;0.40;;;22.00;95.40;;;;;;10183066;29;20059;-89
2022/07/05 07:53:04;;;;;;;0.38;0.20;;;22.20;95.10;;;;;;10163667;29;20074;-89
2022/07/05 07:58:07;;;;;;;1.67;0.30;;;22.30;94.00;;;;;;10160506;29;20039;-89
2022/07/05 08:03:08;;;;;;;1.60;0.40;;;22.50;93.40;;;;;;10182296;29;20073;-87
2022/07/05 08:08:10;;;;;;;2.85;0.30;;;22.80;93.30;;;;;;10172934;29;20052;-88
2022/07/05 08:13:12;;;;;;;1.83;0.30;;;23.00;92.20;;;;;;10154337;29;20118;-89
2022/07/05 08:23:35;;;;;;;3.75;0.30;;;23.30;91.60;;;;;;10196967;29;20059;-88
2022/07/05 08:28:37;;;;;;;0.38;0.20;;;23.40;86.30;;;;;;10180509;29;20064;-89
2022/07/05 08:33:59;;;;;;;3.55;0.20;;;23.80;88.50;;;;;;10174460;29;20055;-89
2022/07/05 08:39:04;;;;;;;1.20;0.30;;;24.00;85.10;;;;;;10162508;29;20059;-89
2022/07/05 08:44:06;;;;;;;4.68;0.55;;;24.00;84.60;;;;;;10160680;29;20083;-89
2022/07/05 08:49:12;;;;;;;1.08;0.20;;;24.50;83.40;;;;;;10165783;29;20052;-89
2022/07/05 08:54:15;;;;;;;4.78;0.30;;;24.60;82.50;;;;;;10193527;29;20054;-89
2022/07/05 08:59:17;;;;;;;5.30;0.40;;;24.30;81.70;;;;;;10165407;29;21486;-90
2022/07/05 09:04:21;;;;;;;1.00;0.20;;;24.40;81.60;;;;;;10177364;29;20996;-89
2022/07/05 09:09:25;;;;;;;3.75;0.38;;;24.40;83.50;;;;;;10194686;29;20134;-89
2022/07/05 09:14:27;;;;;;;2.53;0.30;;;24.50;82.20;;;;;;10160062;29;20372;-89
2022/07/05 09:19:31;;;;;;;4.68;0.30;;;24.70;82.30;;;;;;10174663;29;20061;-89
2022/07/05 09:24:43;;;;;;;3.72;0.28;;;24.90;81.60;;;;;;10188676;29;20066;-89
2022/07/05 09:29:58;;;;;;;2.30;0.30;;;25.00;81.70;;;;;;10175868;29;20063;-89
2022/07/05 09:35:20;;;;;;;2.70;0.30;;;24.70;77.90;;;;;;10164442;29;20147;-89
2022/07/05 09:40:22;;;;;;;1.60;0.30;;;24.60;78.70;;;;;;10177529;29;20059;-90
2022/07/05 09:45:25;;;;;;;2.95;0.30;;;24.60;77.80;;;;;;10176145;29;20064;-89
2022/07/05 09:50:34;;;;;;;2.33;0.32;;;24.70;78.90;;;;;;10170527;29;20103;-89
2022/07/05 09:56:03;;;;;;;1.52;0.40;;;25.10;77.00;;;;;;10174927;29;20051;-90
2022/07/05 10:01:24;;;;;;;2.70;0.28;;;25.40;74.40;;;;;;10153553;29;20047;-89
2022/07/05 10:06:27;;;;;;;0.80;0.20;;;25.80;74.90;;;;;;10193258;29;20083;-90
2022/07/05 10:11:29;;;;;;;0.40;0.20;;;25.60;70.80;;;;;;10189257;29;20056;-90
2022/07/05 10:16:31;;;;;;;2.10;0.65;;;25.60;69.20;;;;;;10196021;29;20538;-90
2022/07/05 10:21:34;;;;;;;1.38;0.20;;;25.60;70.30;;;;;;10195096;29;20115;-91
2022/07/05 10:26:57;;;;;;;1.33;0.30;;;25.20;70.90;;;;;;10184703;29;20052;-90
2022/07/05 10:31:59;;;;;;;0.17;0.17;;;25.10;71.40;;;;;;10180461;29;20055;-89
2022/07/05 10:37:02;;;;;;;2.83;0.20;;;25.50;69.80;;;;;;10175286;29;20054;-90
2022/07/05 10:42:05;;;;;;;0.55;0.13;;;25.40;68.60;;;;;;10186980;29;20044;-90
2022/07/05 10:47:11;;;;;;;2.35;0.20;;;25.50;67.00;;;;;;10179888;29;20569;-90
2022/07/05 10:52:24;;;;;;;5.28;0.20;;;25.90;69.40;;;;;;10191342;28;20055;-90
2022/07/05 10:57:28;;;;;;;0.65;0.10;;;26.80;67.20;;;;;;10188884;29;20122;-89
2022/07/05 11:02:29;;;;;;;0.32;0.20;;;26.50;62.00;;;;;;10190709;29;20075;-89
2022/07/05 11:07:56;;;;;;;2.20;0.10;;;26.30;62.50;;;;;;10199560;29;20056;-89
2022/07/05 11:12:58;;;;;;;0.73;0.20;;;26.30;61.50;;;;;;10199964;29;20594;-89
2022/07/05 11:18:23;;;;;;;1.75;0.20;;;25.90;61.60;;;;;;10201288;29;20119;-89
2022/07/05 11:23:29;;;;;;;1.95;0.20;;;25.70;62.60;;;;;;10174870;29;20065;-90
2022/07/05 11:28:45;;;;;;;1.52;0.20;;;26.30;62.20;;;;;;10149471;29;20064;-90
2022/07/05 11:33:50;;;;;;;1.45;0.20;;;26.40;61.20;;;;;;10180271;29;20119;-89
2022/07/05 11:39:20;;;;;;;0.32;0.20;;;27.00;60.70;;;;;;10188209;29;20048;-90
2022/07/05 11:44:24;;;;;;;2.47;0.20;;;26.50;59.70;;;;;;10166205;29;20086;-89
2022/07/05 11:49:58;;;;;;;0.30;0.17;;;26.50;59.00;;;;;;10202045;29;20083;-90
2022/07/05 11:55:06;;;;;;;2.75;0.13;;;26.20;59.00;;;;;;10213210;29;20051;-90
2022/07/05 12:00:09;;;;;;;1.00;0.20;;;26.80;59.40;;;;;;10164042;29;20074;-87
2022/07/05 12:05:15;;;;;;;1.20;0.20;;;27.10;56.50;;;;;;10179077;29;20396;-88
2022/07/05 12:16:01;;;;;;;1.52;0.20;;;27.50;57.70;;;;;;10180590;29;20436;-86
2022/07/05 12:21:02;;;;;;;2.38;0.17;;;27.50;55.20;;;;;;10178775;29;20505;-90
2022/07/05 12:26:05;;;;;;;0.30;0.17;;;27.60;55.50;;;;;;10166343;29;20095;-88
2022/07/05 12:31:21;;;;;;;0.80;0.47;;;27.40;58.10;;;;;;10200564;29;20044;-89
2022/07/05 12:36:23;;;;;;;0.30;0.20;;;27.60;56.90;;;;;;10183319;29;20068;-87
2022/07/05 12:41:25;;;;;;;0.70;0.20;;;27.50;56.70;;;;;;10192848;29;20143;-87
2022/07/05 12:46:37;;;;;;;4.88;0.40;;;27.30;54.70;;;;;;10152532;29;20076;-89
2022/07/05 12:51:45;;;;;;;0.43;0.20;;;27.80;53.30;;;;;;10163579;29;20495;-88
2022/07/05 13:02:45;;;;;;;0.30;0.20;;;27.70;54.50;;;;;;10193480;29;20066;-87
2022/07/05 13:07:48;;;;;;;0.35;0.13;;;27.70;55.00;;;;;;10195863;29;22311;-88
2022/07/05 13:12:57;;;;;;;1.52;0.20;;;27.40;54.60;;;;;;10198957;29;20503;-88
2022/07/05 13:18:00;;;;;;;5.03;0.30;;;27.10;53.90;;;;;;10166869;29;20058;-88
2022/07/05 13:23:02;;;;;;;1.17;0.20;;;27.20;55.00;;;;;;10185336;29;20104;-88
2022/07/05 13:28:04;;;;;;;0.40;0.20;;;27.70;53.60;;;;;;10177646;29;20103;-88
2022/07/05 13:33:06;;;;;;;0.40;0.30;;;27.60;53.50;;;;;;10181492;29;20368;-88
2022/07/05 13:38:08;;;;;;;0.68;0.30;;;27.50;53.60;;;;;;10178435;29;20130;-88
2022/07/05 13:43:09;;;;;;;0.22;0.10;;;27.40;53.90;;;;;;10163912;29;20054;-88
2022/07/05 13:48:11;;;;;;;0.80;0.20;;;27.80;53.30;;;;;;10168833;29;20496;-88
2022/07/05 13:53:16;;;;;;;0.47;0.20;;;27.70;54.80;;;;;;10172585;29;20135;-87
2022/07/05 13:58:18;;;;;;;0.40;0.20;;;27.40;55.00;;;;;;10174185;29;20064;-87
2022/07/05 14:03:20;;;;;;;1.67;0.50;;;28.00;54.70;;;;;;10173592;29;20079;-88
2022/07/05 14:08:22;;;;;;;0.95;0.40;;;28.10;55.90;;;;;;10188972;29;20054;-88
2022/07/05 14:13:25;;;;;;;2.40;0.40;;;28.30;56.20;;;;;;10182636;29;20055;-88
2022/07/05 14:18:27;;;;;;;1.85;0.40;;;28.10;56.50;;;;;;10178368;29;20075;-86
2022/07/05 14:23:29;;;;;;;1.85;0.47;;;27.60;55.70;;;;;;10185791;29;20059;-87
2022/07/05 14:28:31;;;;;;;4.68;0.52;;;28.00;57.20;;;;;;10179310;29;20059;-87
2022/07/05 14:33:33;;;;;;;0.88;0.30;;;28.10;55.90;;;;;;10201525;29;20052;-88
2022/07/05 14:38:35;;;;;;;0.88;0.40;;;27.70;56.60;;;;;;10218398;29;20498;-88
2022/07/05 14:43:37;;;;;;;3.83;0.50;;;27.70;57.50;;;;;;10218876;29;20079;-89
2022/07/05 14:48:39;;;;;;;0.75;0.30;;;27.20;57.70;;;;;;10200616;29;20063;-87
2022/07/05 14:53:46;;;;;;;1.15;0.30;;;27.00;57.80;;;;;;10202694;29;20067;-87
2022/07/05 14:58:49;;;;;;;0.60;0.40;;;26.90;58.70;;;;;;10195428;29;20785;-87
2022/07/05 15:03:52;;;;;;;0.55;0.40;;;27.00;59.00;;;;;;10214355;29;20158;-87
2022/07/05 15:08:54;;;;;;;0.35;0.30;;;27.30;58.30;;;;;;10210252;29;20083;-88
2022/07/05 15:14:02;;;;;;;0.98;0.30;;;27.60;58.20;;;;;;10195140;29;20072;-87
2022/07/05 15:19:04;;;;;;;8.43;0.40;;;28.40;57.40;;;;;;10173539;29;20066;-90
2022/07/05 15:24:06;;;;;;;2.05;0.30;;;28.70;56.80;;;;;;10172079;29;20051;-90
2022/07/05 15:29:18;;;;;;;3.20;0.22;;;28.20;56.80;;;;;;10131825;29;20557;-90
2022/07/05 15:34:20;;;;;;;0.90;0.40;;;27.60;57.70;;;;;;10192553;29;20066;-90
2022/07/05 15:39:22;;;;;;;2.40;0.30;;;27.30;57.90;;;;;;10199736;29;20051;-89
2022/07/05 15:44:24;;;;;;;3.20;0.40;;;27.20;58.60;;;;;;10183842;29;20055;-90
2022/07/05 15:49:26;;;;;;;1.23;0.30;;;26.70;59.30;;;;;;10180774;29;20063;-90
2022/07/05 15:54:28;;;;;;;1.48;0.38;;;27.00;59.20;;;;;;10179853;29;20388;-90
2022/07/05 15:59:30;;;;;;;0.60;0.40;;;27.50;59.00;;;;;;10176460;29;20142;-90
2022/07/05 16:04:32;;;;;;;1.45;0.40;;;27.40;58.50;;;;;;10168483;29;20068;-90
2022/07/05 16:09:34;;;;;;;2.67;0.32;;;27.50;59.10;;;;;;10183857;29;20079;-90
2022/07/05 16:14:36;;;;;;;3.60;0.40;;;27.80;58.70;;;;;;10178970;29;20051;-90
2022/07/05 16:19:38;;;;;;;0.63;0.30;;;28.10;58.50;;;;;;10194880;29;20119;-90
2022/07/05 16:24:40;;;;;;;1.13;0.40;;;27.70;58.60;;;;;;10177156;29;20086;-90
2022/07/05 16:29:42;;;;;;;0.60;0.30;;;27.40;58.70;;;;;;10175122;29;20063;-90
2022/07/05 16:34:44;;;;;;;0.50;0.40;;;27.70;58.40;;;;;;10173034;29;20079;-90
2022/07/05 16:39:48;;;;;;;0.47;0.30;;;28.30;57.80;;;;;;10178293;29;20051;-91
2022/07/05 16:44:49;;;;;;;0.30;0.30;;;28.70;57.00;;;;;;10163235;29;20130;-91
2022/07/05 16:49:59;;;;;;;2.80;0.52;;;28.90;56.30;;;;;;10174687;29;20063;-91
2022/07/05 16:55:02;;;;;;;0.60;0.32;;;28.40;56.40;;;;;;10179438;29;20083;-91
2022/07/05 17:00:05;;;;;;;3.10;0.30;;;28.80;55.90;;;;;;10162620;29;20063;-91
2022/07/05 17:05:08;;;;;;;0.40;0.30;;;28.40;56.10;;;;;;10159890;29;20059;-90
2022/07/05 17:10:10;;;;;;;0.20;0.20;;;28.80;56.30;;;;;;10154119;29;20060;-90
2022/07/05 17:15:12;;;;;;;3.05;0.40;;;29.00;54.90;;;;;;10181778;29;20143;-91
2022/07/05 17:20:14;;;;;;;0.80;0.30;;;28.90;54.70;;;;;;10155191;29;20059;-91
2022/07/05 17:25:21;;;;;;;3.28;0.40;;;28.80;54.80;;;;;;10171418;29;20529;-92
2022/07/05 17:30:31;;;;;;;1.77;0.30;;;28.80;54.90;;;;;;10169352;29;20063;-91
2022/07/05 17:35:34;;;;;;;1.02;0.30;;;28.20;54.90;;;;;;10099533;29;20068;-91
2022/07/05 17:40:36;;;;;;;1.15;0.30;;;28.50;55.20;;;;;;10123824;29;20056;-90
2022/07/05 17:45:38;;;;;;;0.30;0.20;;;27.90;54.80;;;;;;10143796;29;20063;-92
2022/07/05 17:50:43;;;;;;;0.57;0.30;;;28.20;54.80;;;;;;10080110;29;20056;-93
2022/07/05 17:55:52;;;;;;;0.50;0.30;;;27.90;55.00;;;;;;10160648;29;20367;-90
2022/07/05 18:00:55;;;;;;;1.55;0.30;;;27.70;55.00;;;;;;10158401;29;20042;-91
2022/07/05 18:05:57;;;;;;;2.78;0.30;;;27.10;56.10;;;;;;10109713;29;20116;-90
2022/07/05 18:10:59;;;;;;;5.20;0.30;;;27.30;56.10;;;;;;10169989;29;20084;-91
2022/07/05 18:16:02;;;;;;;1.42;0.38;;;27.10;56.00;;;;;;10150926;29;20062;-91
2022/07/05 18:21:05;;;;;;;0.52;0.28;;;27.10;55.90;;;;;;10145390;29;20051;-90
2022/07/05 18:26:07;;;;;;;4.78;0.30;;;26.20;57.00;;;;;;10186692;29;20134;-90
2022/07/05 18:31:09;;;;;;;0.40;0.20;;;25.80;57.60;;;;;;10159778;29;20087;-89
2022/07/05 18:36:13;;;;;;;0.88;0.30;;;25.60;58.60;;;;;;10204169;29;20052;-90
2022/07/05 18:41:16;;;;;;;0.88;0.22;;;25.10;58.90;;;;;;10198470;29;20293;-89
2022/07/05 18:46:18;;;;;;;0.88;0.30;;;24.90;59.50;;;;;;10185544;29;20060;-89
2022/07/05 18:51:20;;;;;;;3.58;0.40;;;24.80;59.70;;;;;;10199486;29;20056;-89
2022/07/05 18:56:22;;;;;;;0.90;0.30;;;24.50;60.50;;;;;;10198607;29;20071;-90
2022/07/05 19:01:25;;;;;;;0.40;0.30;;;24.30;61.10;;;;;;10191924;29;20073;-90
2022/07/05 19:17:08;;;;;;;0.82;0.20;;;23.70;61.10;;;;;;10191062;29;20070;-89
2022/07/05 19:22:11;;;;;;;0.30;0.20;;;23.50;61.40;;;;;;10199399;29;20059;-88
2022/07/05 19:27:13;;;;;;;2.55;0.38;;;23.30;61.90;;;;;;10208517;29;20052;-88
2022/07/05 19:32:15;;;;;;;0.60;0.20;;;23.30;62.50;;;;;;10183853;29;20531;-89
2022/07/05 19:37:17;;;;;;;3.10;0.32;;;23.20;62.60;;;;;;10200471;29;20127;-89
2022/07/05 19:42:22;;;;;;;2.80;0.30;;;23.10;62.90;;;;;;10193622;29;20051;-88
2022/07/05 19:47:25;;;;;;;0.60;0.20;;;22.90;63.30;;;;;;10156606;29;20134;-89
2022/07/05 19:52:28;;;;;;;2.65;0.22;;;22.80;63.70;;;;;;10186619;29;20142;-89
2022/07/05 19:57:30;;;;;;;0.63;0.30;;;22.70;63.90;;;;;;10188128;29;20055;-89
2022/07/05 20:02:35;;;;;;;2.75;0.30;;;22.50;64.20;;;;;;10195885;29;20142;-89
2022/07/05 20:07:37;;;;;;;4.22;0.70;;;22.40;64.40;;;;;;10188399;29;20060;-88
2022/07/05 20:12:39;;;;;;;4.32;0.20;;;22.30;64.70;;;;;;10196839;29;20111;-88
2022/07/05 20:17:44;;;;;;;4.43;0.30;;;22.20;65.00;;;;;;10199925;29;20059;-89
2022/07/05 20:22:46;;;;;;;4.55;0.20;;;22.20;65.80;;;;;;10204547;29;20047;-89
2022/07/05 20:27:48;;;;;;;2.42;0.30;;;22.10;65.60;;;;;;10201840;29;20059;-88
2022/07/05 20:32:50;;;;;;;0.73;0.20;;;22.10;65.70;;;;;;10191597;29;20055;-89
2022/07/05 20:37:52;;;;;;;1.15;0.40;;;21.90;65.20;;;;;;10199146;29;20075;-88
2022/07/05 20:42:54;;;;;;;0.50;0.28;;;21.80;65.20;;;;;;10190842;29;20080;-89
2022/07/05 20:47:56;;;;;;;2.40;0.40;;;21.80;65.30;;;;;;10175505;29;20079;-87
2022/07/05 20:52:57;;;;;;;0.40;0.30;;;21.80;65.50;;;;;;10214315;29;20043;-88
2022/07/05 20:57:59;;;;;;;9.10;0.45;;;21.70;66.30;;;;;;10179045;29;20119;-87
2022/07/05 21:03:03;;;;;;;1.05;0.40;;;21.50;66.50;;;;;;10201648;29;20055;-87
2022/07/05 21:08:05;;;;;;;2.28;0.30;;;21.40;67.10;;;;;;10179968;29;20111;-87
2022/07/05 21:13:07;;;;;;;0.93;0.30;;;21.30;67.10;;;;;;10181281;29;20168;-87
2022/07/05 21:18:09;;;;;;;0.93;0.30;;;21.30;67.40;;;;;;10173909;29;20060;-87
2022/07/05 21:23:11;;;;;;;3.03;0.35;;;21.10;68.50;;;;;;10192330;29;20059;-88
2022/07/05 21:28:13;;;;;;;0.30;0.20;;;21.10;68.90;;;;;;10190454;29;20047;-88
2022/07/05 21:33:15;;;;;;;2.25;0.60;;;20.90;69.60;;;;;;10184398;29;20095;-89
2022/07/05 21:38:17;;;;;;;0.63;0.30;;;20.70;70.00;;;;;;10182692;29;20107;-89
2022/07/05 21:43:20;;;;;;;3.95;0.40;;;20.50;71.00;;;;;;10132382;29;20044;-88
2022/07/05 21:48:22;;;;;;;0.50;0.20;;;20.40;71.80;;;;;;10170346;29;20449;-88
2022/07/05 21:53:24;;;;;;;5.53;0.30;;;20.20;72.70;;;;;;10180492;29;20508;-87
2022/07/05 21:58:26;;;;;;;1.33;0.40;;;20.20;73.20;;;;;;10167234;29;20082;-88
2022/07/05 22:08:50;;;;;;;2.80;0.40;;;19.90;74.70;;;;;;10184654;29;20617;-87
2022/07/05 22:13:52;;;;;;;1.38;0.30;;;19.80;75.40;;;;;;10170409;29;20059;-87
2022/07/05 22:18:54;;;;;;;2.35;0.30;;;19.60;76.30;;;;;;10140659;29;20049;-88
2022/07/05 22:23:55;;;;;;;2.70;0.30;;;19.40;76.90;;;;;;10188024;29;20070;-87
2022/07/05 22:28:58;;;;;;;0.73;0.30;;;19.30;77.80;;;;;;10165247;29;20134;-87
2022/07/05 22:34:09;;;;;;;0.68;0.30;;;19.20;78.40;;;;;;10158956;29;20103;-87
2022/07/05 22:39:11;;;;;;;2.25;0.32;;;19.00;79.10;;;;;;10162347;29;20063;-87
2022/07/05 22:44:19;;;;;;;0.75;0.38;;;19.00;79.60;;;;;;10185075;29;20062;-87
2022/07/05 22:49:24;;;;;;;1.40;0.30;;;18.90;80.30;;;;;;10142059;29;20099;-87
2022/07/05 22:54:26;;;;;;;0.80;0.50;;;18.90;80.90;;;;;;10129960;29;20523;-88
2022/07/05 22:59:28;;;;;;;2.15;0.30;;;18.70;81.60;;;;;;10191418;29;20040;-87
2022/07/05 23:04:40;;;;;;;2.25;0.60;;;18.60;82.60;;;;;;10133364;29;20101;-87
2022/07/05 23:09:42;;;;;;;0.77;0.30;;;18.50;83.40;;;;;;10109227;29;20062;-88
2022/07/05 23:14:44;;;;;;;2.88;0.47;;;18.50;84.00;;;;;;10178279;29;20065;-89
2022/07/05 23:19:49;;;;;;;4.07;0.40;;;18.40;84.40;;;;;;10183571;29;20040;-89
2022/07/05 23:24:57;;;;;;;2.05;0.70;;;18.40;84.90;;;;;;10165063;29;20062;-88
2022/07/05 23:30:00;;;;;;;0.70;0.30;;;18.40;85.80;;;;;;10185908;29;20063;-88
2022/07/05 23:35:03;;;;;;;2.22;0.50;;;18.40;86.70;;;;;;10210087;29;20134;-89
2022/07/05 23:40:06;;;;;;;1.35;0.50;;;18.30;87.50;;;;;;10163807;29;20114;-89
2022/07/05 23:45:11;;;;;;;1.40;0.50;;;18.20;88.20;;;;;;10129093;29;20585;-88
2022/07/05 23:50:13;;;;;;;1.45;0.40;;;18.10;89.20;;;;;;10175920;29;20067;-89
2022/07/05 23:55:15;;;;;;;1.33;0.45;;;18.10;90.00;;;;;;10181666;29;20066;-88
